Time;durP1;ratioP1;P1;durP2;ratioP2;P2;SDS_P1;SDS_P2;PMS_P1;PMS_P2;Temp;Humidity;BMP_temperature;BMP_pressure;BME280_temperature;BME280_humidity;BME280_pressure;Samples;Min_cycle;Max_cycle;Signal;HPM_P1;HPM_P2
2022/06/22 00:03:35;;;;;;;6.72;2.12;;;12.50;99.90;;;;;;7337186;32;20158;-60
2022/06/22 00:07:42;;;;;;;3.90;2.35;;;12.40;99.90;;;;;;7341123;32;20240;-60
2022/06/22 00:12:02;;;;;;;3.67;2.20;;;12.30;99.90;;;;;;7336454;32;20319;-60
2022/06/22 00:16:14;;;;;;;4.40;2.30;;;12.30;99.90;;;;;;7338386;32;20107;-60
2022/06/22 00:24:44;;;;;;;8.38;2.80;;;12.10;99.90;;;;;;7334596;32;20182;-61
2022/06/22 00:28:59;;;;;;;5.72;2.60;;;12.00;99.90;;;;;;7342699;32;20104;-62
2022/06/22 00:33:23;;;;;;;6.37;2.22;;;11.90;99.90;;;;;;7351182;32;20144;-59
2022/06/22 00:37:29;;;;;;;3.95;2.50;;;11.80;99.90;;;;;;7343426;32;20130;-59
2022/06/22 00:41:33;;;;;;;4.45;2.40;;;11.80;99.90;;;;;;7345922;32;20933;-60
2022/06/22 00:45:35;;;;;;;4.15;2.33;;;11.70;99.90;;;;;;7348081;32;20198;-61
2022/06/22 00:49:43;;;;;;;6.32;2.60;;;11.60;99.90;;;;;;7347451;32;20108;-62
2022/06/22 00:58:39;;;;;;;5.12;2.40;;;11.50;99.90;;;;;;7342167;32;20190;-60
2022/06/22 01:02:51;;;;;;;5.12;2.35;;;11.50;99.90;;;;;;7342788;32;20329;-61
2022/06/22 01:07:17;;;;;;;5.68;2.30;;;11.50;99.90;;;;;;7343793;32;20134;-59
2022/06/22 01:16:16;;;;;;;2.37;1.90;;;11.30;99.90;;;;;;7348066;32;20466;-60
2022/06/22 01:20:52;;;;;;;5.80;2.05;;;11.30;99.90;;;;;;7346571;32;20811;-63
2022/06/22 01:25:00;;;;;;;4.28;2.40;;;11.30;99.90;;;;;;7341919;32;20179;-59
2022/06/22 01:29:25;;;;;;;5.15;2.60;;;11.20;99.90;;;;;;7344546;32;20546;-60
2022/06/22 01:33:33;;;;;;;4.60;2.08;;;11.10;99.90;;;;;;7344959;32;20151;-60
2022/06/22 01:37:35;;;;;;;6.03;2.42;;;11.00;99.90;;;;;;7346412;32;20204;-59
2022/06/22 01:41:40;;;;;;;5.30;1.80;;;11.00;99.90;;;;;;7344368;32;20209;-60
2022/06/22 01:45:56;;;;;;;6.15;2.05;;;10.90;99.90;;;;;;7346025;32;20817;-60
2022/06/22 01:50:09;;;;;;;4.85;2.03;;;10.90;99.90;;;;;;7348777;32;20112;-59
2022/06/22 01:54:28;;;;;;;8.23;2.28;;;10.80;99.90;;;;;;7348301;32;20209;-61
2022/06/22 01:58:43;;;;;;;4.28;1.98;;;10.80;99.90;;;;;;7337948;32;20142;-59
2022/06/22 02:02:49;;;;;;;6.55;2.10;;;10.80;99.90;;;;;;7341509;32;20702;-61
2022/06/22 02:11:27;;;;;;;3.45;2.22;;;10.70;99.90;;;;;;7339761;32;20138;-61
2022/06/22 02:16:03;;;;;;;6.40;2.05;;;10.70;99.90;;;;;;7330250;32;20230;-60
2022/06/22 02:20:29;;;;;;;7.07;2.10;;;10.60;99.90;;;;;;7340266;32;20178;-60
2022/06/22 02:24:33;;;;;;;4.75;2.20;;;10.50;99.90;;;;;;7340429;32;20161;-60
2022/06/22 02:28:35;;;;;;;4.20;1.77;;;10.50;99.90;;;;;;7336033;32;20758;-60
2022/06/22 02:32:40;;;;;;;5.80;2.22;;;10.50;99.90;;;;;;7342339;32;20111;-60
2022/06/22 02:36:46;;;;;;;4.50;2.10;;;10.40;99.90;;;;;;7337068;32;20190;-60
2022/06/22 02:45:17;;;;;;;4.55;1.87;;;10.40;99.90;;;;;;7335077;32;20644;-60
2022/06/22 02:49:22;;;;;;;5.10;2.00;;;10.40;99.90;;;;;;7340838;32;20253;-60
2022/06/22 02:53:34;;;;;;;6.35;2.15;;;10.40;99.90;;;;;;7341190;32;20612;-60
2022/06/22 02:57:47;;;;;;;3.70;2.30;;;10.30;99.90;;;;;;7341795;32;20107;-60
2022/06/22 03:01:49;;;;;;;4.55;2.37;;;10.30;99.90;;;;;;7339521;32;20103;-60
2022/06/22 03:05:55;;;;;;;4.72;2.58;;;10.30;99.90;;;;;;7343156;32;20208;-59
2022/06/22 03:09:59;;;;;;;6.37;2.28;;;10.20;99.90;;;;;;7338142;32;20793;-60
2022/06/22 03:14:18;;;;;;;6.12;2.25;;;10.20;99.90;;;;;;7335755;32;20263;-59
2022/06/22 03:18:24;;;;;;;5.18;1.87;;;10.20;99.90;;;;;;7336555;32;20193;-60
2022/06/22 03:22:35;;;;;;;4.45;2.12;;;10.20;99.90;;;;;;7336701;32;20130;-60
2022/06/22 03:26:41;;;;;;;5.97;2.40;;;10.10;99.90;;;;;;7340436;32;20104;-60
2022/06/22 03:30:43;;;;;;;6.60;2.25;;;10.10;99.90;;;;;;7340227;32;20131;-60
2022/06/22 03:35:04;;;;;;;4.55;2.20;;;10.10;99.90;;;;;;7342606;32;20524;-59
2022/06/22 03:39:10;;;;;;;4.62;2.62;;;10.10;99.90;;;;;;7335545;32;20927;-60
2022/06/22 03:43:22;;;;;;;5.15;2.60;;;10.10;99.90;;;;;;7328517;32;20816;-59
2022/06/22 03:48:22;;;;;;;4.90;2.70;;;10.20;99.90;;;;;;7336513;32;20107;-60
2022/06/22 03:52:34;;;;;;;4.82;2.65;;;10.20;99.90;;;;;;7240242;32;20290;-60
2022/06/22 03:56:49;;;;;;;4.22;2.95;;;10.40;99.90;;;;;;7338083;32;20237;-60
2022/06/22 04:00:51;;;;;;;6.28;3.08;;;10.50;99.90;;;;;;7346278;32;20141;-60
2022/06/22 04:04:55;;;;;;;6.65;2.97;;;10.60;99.90;;;;;;7346247;32;20288;-60
2022/06/22 04:08:57;;;;;;;5.30;2.90;;;10.70;99.90;;;;;;7350088;32;20640;-61
2022/06/22 04:13:02;;;;;;;6.30;2.72;;;10.90;99.90;;;;;;7338257;32;20151;-60
2022/06/22 04:17:10;;;;;;;8.25;2.78;;;11.10;99.90;;;;;;7346856;32;20111;-60
2022/06/22 04:21:17;;;;;;;8.25;2.80;;;11.60;99.90;;;;;;7352769;32;20226;-60
2022/06/22 04:25:32;;;;;;;3.42;2.45;;;11.80;99.90;;;;;;7346506;32;20107;-60
2022/06/22 04:30:00;;;;;;;3.75;2.28;;;12.00;99.90;;;;;;7353150;32;20110;-59
2022/06/22 04:34:11;;;;;;;4.47;1.77;;;12.30;99.90;;;;;;7344729;32;20245;-59
2022/06/22 04:38:30;;;;;;;4.93;2.40;;;12.60;99.90;;;;;;7353356;32;20125;-59
2022/06/22 04:42:32;;;;;;;8.93;2.83;;;12.90;99.90;;;;;;7349409;32;20514;-61
2022/06/22 04:46:36;;;;;;;4.25;2.35;;;13.20;99.90;;;;;;7345647;32;20382;-61
2022/06/22 04:50:40;;;;;;;5.22;2.08;;;13.30;99.90;;;;;;7351431;32;20552;-63
2022/06/22 04:54:44;;;;;;;5.22;2.10;;;13.40;99.90;;;;;;7353043;32;20539;-63
2022/06/22 04:58:51;;;;;;;4.03;1.90;;;13.60;99.90;;;;;;7349299;32;20404;-64
2022/06/22 05:02:59;;;;;;;9.10;5.05;;;13.80;99.90;;;;;;7353896;32;20230;-63
2022/06/22 05:07:04;;;;;;;4.68;2.08;;;14.30;99.90;;;;;;7347976;32;20110;-63
2022/06/22 05:11:12;;;;;;;5.35;1.92;;;15.00;99.90;;;;;;7349996;32;20260;-63
2022/06/22 05:15:23;;;;;;;4.60;2.08;;;15.60;99.90;;;;;;7343994;32;20225;-63
2022/06/22 05:19:36;;;;;;;5.72;1.87;;;16.20;99.90;;;;;;7336305;32;20138;-58
2022/06/22 05:23:39;;;;;;;5.37;2.10;;;16.50;99.90;;;;;;7340251;32;20111;-60
2022/06/22 05:28:02;;;;;;;7.55;3.17;;;16.20;99.90;;;;;;7346236;32;20159;-64
2022/06/22 05:32:10;;;;;;;5.87;2.17;;;16.10;99.90;;;;;;7342279;32;20207;-62
2022/06/22 05:36:14;;;;;;;4.15;2.12;;;16.00;99.90;;;;;;7337544;32;20126;-63
2022/06/22 05:40:17;;;;;;;8.30;2.90;;;16.00;99.90;;;;;;7346622;32;20647;-62
2022/06/22 05:44:22;;;;;;;5.78;2.37;;;16.10;99.90;;;;;;7344968;32;20111;-63
2022/06/22 05:48:26;;;;;;;8.18;2.40;;;16.30;99.90;;;;;;7345656;32;20118;-63
2022/06/22 05:52:48;;;;;;;3.45;1.95;;;16.40;99.90;;;;;;7343100;32;20107;-62
2022/06/22 05:57:20;;;;;;;5.18;2.10;;;16.60;99.90;;;;;;7343946;32;20131;-63
2022/06/22 06:02:09;;;;;;;4.47;1.90;;;16.80;99.90;;;;;;7342982;32;20348;-63
2022/06/22 06:06:17;;;;;;;9.20;4.00;;;17.00;99.90;;;;;;7297952;32;20120;-63
2022/06/22 06:10:34;;;;;;;24.30;18.45;;;17.30;99.90;;;;;;7339467;32;20166;-62
2022/06/22 06:14:44;;;;;;;6.45;2.67;;;17.30;99.90;;;;;;7344543;32;20103;-62
2022/06/22 06:18:46;;;;;;;7.20;1.87;;;17.60;99.90;;;;;;7343957;32;20141;-63
2022/06/22 06:22:52;;;;;;;4.18;1.98;;;17.90;99.90;;;;;;7346203;32;20138;-64
2022/06/22 06:32:00;;;;;;;6.05;2.33;;;18.30;99.90;;;;;;7333734;32;20583;-61
2022/06/22 06:36:24;;;;;;;7.47;2.10;;;18.40;99.90;;;;;;7340962;32;20139;-63
2022/06/22 06:40:53;;;;;;;6.97;2.40;;;18.40;99.90;;;;;;7339010;32;20222;-62
2022/06/22 06:44:58;;;;;;;6.95;2.20;;;18.50;99.90;;;;;;7339028;32;20280;-62
2022/06/22 06:49:19;;;;;;;5.68;2.28;;;18.60;99.90;;;;;;7340387;32;20683;-63
2022/06/22 06:53:36;;;;;;;5.72;1.95;;;18.80;99.90;;;;;;7340847;32;20181;-63
2022/06/22 06:57:59;;;;;;;6.17;2.13;;;19.00;99.90;;;;;;7343049;32;20441;-62
2022/06/22 07:02:10;;;;;;;8.95;2.15;;;19.30;99.90;;;;;;7339811;32;20478;-63
2022/06/22 07:06:11;;;;;;;7.00;1.95;;;19.40;99.90;;;;;;7332695;32;20620;-64
2022/06/22 07:10:21;;;;;;;5.53;2.08;;;19.50;99.90;;;;;;7343069;32;20359;-62
2022/06/22 07:14:30;;;;;;;5.55;2.17;;;19.50;99.90;;;;;;7341183;32;20202;-62
2022/06/22 07:18:55;;;;;;;6.55;1.98;;;19.80;99.90;;;;;;7335958;32;20182;-63
2022/06/22 07:23:05;;;;;;;5.00;2.00;;;20.10;99.90;;;;;;7333868;32;20452;-62
2022/06/22 07:27:22;;;;;;;5.18;1.95;;;20.00;99.90;;;;;;7329749;32;20115;-62
2022/06/22 07:31:34;;;;;;;5.70;1.67;;;20.10;99.90;;;;;;7342642;32;20202;-62
2022/06/22 07:35:44;;;;;;;6.40;1.65;;;20.20;99.90;;;;;;7341333;32;20540;-61
2022/06/22 07:39:53;;;;;;;5.68;1.60;;;20.50;99.90;;;;;;7336684;32;20389;-61
2022/06/22 07:43:57;;;;;;;4.90;1.62;;;20.60;99.90;;;;;;7339146;32;20168;-62
2022/06/22 07:48:10;;;;;;;6.50;1.92;;;20.60;99.90;;;;;;7338708;32;20112;-62
2022/06/22 07:52:15;;;;;;;5.50;1.60;;;21.00;99.90;;;;;;7337818;32;20191;-63
2022/06/22 07:56:27;;;;;;;7.35;1.75;;;21.10;99.90;;;;;;7343642;32;20138;-64
2022/06/22 08:00:31;;;;;;;5.57;1.65;;;21.10;99.90;;;;;;7342233;32;20663;-63
2022/06/22 08:04:42;;;;;;;10.27;1.80;;;20.80;99.90;;;;;;7337381;32;20198;-61
2022/06/22 08:08:55;;;;;;;4.97;1.75;;;21.00;99.90;;;;;;7340601;32;20210;-63
2022/06/22 08:12:57;;;;;;;5.50;1.70;;;21.40;99.90;;;;;;7342339;32;20107;-64
2022/06/22 08:17:01;;;;;;;5.32;1.60;;;21.80;99.90;;;;;;7346125;32;20778;-62
2022/06/22 08:21:05;;;;;;;8.43;2.10;;;22.00;99.90;;;;;;7344453;32;20748;-63
2022/06/22 08:25:08;;;;;;;6.30;1.83;;;22.50;99.90;;;;;;7339142;32;20141;-65
2022/06/22 08:29:09;;;;;;;7.25;1.85;;;22.40;99.90;;;;;;7345645;32;20188;-63
2022/06/22 08:33:14;;;;;;;8.18;1.87;;;22.50;99.90;;;;;;7344492;32;20490;-62
2022/06/22 08:37:23;;;;;;;4.93;1.23;;;22.60;99.90;;;;;;7329393;32;20797;-62
2022/06/22 08:41:39;;;;;;;6.37;1.65;;;22.70;99.90;;;;;;7336373;32;20111;-62
2022/06/22 08:46:03;;;;;;;4.47;1.17;;;23.10;99.90;;;;;;7335898;32;20451;-61
2022/06/22 08:50:27;;;;;;;6.40;1.30;;;23.20;99.90;;;;;;7345339;32;20186;-61
2022/06/22 08:54:47;;;;;;;5.15;1.30;;;23.30;99.90;;;;;;7343830;32;20107;-63
2022/06/22 08:59:31;;;;;;;3.78;1.73;;;23.80;99.90;;;;;;7342951;32;20135;-62
2022/06/22 09:04:09;;;;;;;3.83;1.00;;;23.70;97.20;;;;;;7344077;32;20577;-62
2022/06/22 09:08:14;;;;;;;6.70;1.40;;;24.00;99.40;;;;;;7346282;32;20221;-62
2022/06/22 09:12:55;;;;;;;5.37;1.50;;;24.70;97.00;;;;;;7344333;32;20134;-62
2022/06/22 09:17:20;;;;;;;8.30;1.65;;;24.90;96.30;;;;;;7343979;32;20779;-63
2022/06/22 09:21:42;;;;;;;5.75;1.35;;;24.90;94.60;;;;;;7343337;32;20103;-63
2022/06/22 09:25:55;;;;;;;3.35;1.20;;;25.30;94.70;;;;;;7343651;32;20320;-63
2022/06/22 09:30:15;;;;;;;4.70;1.30;;;26.00;94.20;;;;;;7343522;32;20115;-63
2022/06/22 09:34:52;;;;;;;3.60;1.20;;;25.50;90.40;;;;;;7341648;32;20596;-63
2022/06/22 09:39:23;;;;;;;5.17;1.20;;;25.50;89.70;;;;;;7321309;32;20206;-64
2022/06/22 09:43:33;;;;;;;6.60;1.40;;;25.70;89.20;;;;;;7345373;32;20775;-63
2022/06/22 09:47:52;;;;;;;7.10;1.20;;;25.80;90.70;;;;;;7346462;32;20210;-63
2022/06/22 09:52:18;;;;;;;5.65;1.12;;;26.30;87.40;;;;;;7346570;32;20107;-63
2022/06/22 09:56:34;;;;;;;2.20;1.10;;;26.50;84.80;;;;;;7343549;32;20163;-63
2022/06/22 10:01:06;;;;;;;3.97;1.00;;;26.10;85.60;;;;;;7343990;32;20683;-63
2022/06/22 10:05:26;;;;;;;8.05;1.23;;;26.40;84.80;;;;;;7337655;32;20707;-63
2022/06/22 10:10:05;;;;;;;7.95;1.62;;;26.90;86.30;;;;;;7340765;32;20140;-63
2022/06/22 10:14:44;;;;;;;3.22;1.37;;;27.20;77.70;;;;;;7345535;32;20111;-63
2022/06/22 10:18:58;;;;;;;1.77;0.98;;;27.20;77.30;;;;;;7340403;32;20309;-63
2022/06/22 10:23:26;;;;;;;3.85;1.17;;;26.40;77.50;;;;;;7339605;32;20139;-64
2022/06/22 10:27:34;;;;;;;4.95;0.98;;;27.10;83.00;;;;;;7341447;32;20825;-62
2022/06/22 10:31:56;;;;;;;5.87;1.42;;;28.00;80.30;;;;;;7338090;32;20174;-64
2022/06/22 10:36:55;;;;;;;5.22;1.20;;;26.50;71.80;;;;;;7340803;32;20240;-63
2022/06/22 10:45:48;;;;;;;4.70;0.98;;;27.40;77.20;;;;;;7314409;32;20237;-63
2022/06/22 10:50:08;;;;;;;3.70;1.00;;;27.20;75.10;;;;;;7341192;32;20178;-64
2022/06/22 10:54:29;;;;;;;6.45;1.10;;;27.70;72.40;;;;;;7343533;32;20133;-56
2022/06/22 10:58:48;;;;;;;3.17;1.10;;;27.70;67.90;;;;;;7342294;32;20115;-58
2022/06/22 11:02:58;;;;;;;2.42;1.10;;;27.70;68.80;;;;;;7334099;32;20124;-57
2022/06/22 11:07:37;;;;;;;2.60;0.98;;;26.80;72.00;;;;;;7340406;32;20122;-57
2022/06/22 11:11:57;;;;;;;5.07;1.25;;;27.10;67.80;;;;;;7337335;32;20663;-56
2022/06/22 11:16:08;;;;;;;5.47;1.05;;;26.50;65.70;;;;;;7337049;32;20174;-56
2022/06/22 11:20:32;;;;;;;3.10;1.20;;;26.40;66.30;;;;;;7340943;32;20164;-57
2022/06/22 11:24:46;;;;;;;4.25;1.10;;;26.80;68.40;;;;;;7338324;32;20217;-56
2022/06/22 11:34:04;;;;;;;8.32;1.40;;;26.80;67.30;;;;;;7338599;32;20237;-56
2022/06/22 11:38:39;;;;;;;4.65;1.50;;;27.20;68.80;;;;;;7337201;32;20108;-56
2022/06/22 11:42:47;;;;;;;5.20;1.02;;;27.20;66.10;;;;;;7334116;32;20573;-57
2022/06/22 11:46:53;;;;;;;2.75;0.82;;;27.20;65.90;;;;;;7341071;32;20119;-57
2022/06/22 11:51:15;;;;;;;1.30;0.80;;;27.10;62.70;;;;;;7340040;32;20214;-57
2022/06/22 11:55:28;;;;;;;5.35;1.20;;;27.30;66.70;;;;;;7341769;32;20210;-56
2022/06/22 11:59:48;;;;;;;3.58;1.05;;;27.80;64.00;;;;;;7341106;32;20218;-58
2022/06/22 12:04:21;;;;;;;2.78;0.93;;;27.70;61.80;;;;;;7334756;32;20137;-57
2022/06/22 12:08:29;;;;;;;3.70;1.20;;;28.00;59.60;;;;;;7317497;32;20209;-58
2022/06/22 12:12:40;;;;;;;7.97;1.48;;;27.60;59.60;;;;;;7338230;32;20119;-56
2022/06/22 12:17:05;;;;;;;2.47;0.80;;;27.50;59.80;;;;;;7338643;32;20247;-57
2022/06/22 12:22:01;;;;;;;5.30;1.45;;;27.30;59.90;;;;;;7341311;32;20709;-57
2022/06/22 12:26:12;;;;;;;5.32;1.20;;;27.40;60.50;;;;;;7260702;32;20452;-58
2022/06/22 12:30:43;;;;;;;3.33;1.33;;;27.30;63.50;;;;;;7347961;32;20905;-57
2022/06/22 12:35:00;;;;;;;3.53;1.30;;;27.40;60.80;;;;;;7347701;32;20208;-56
2022/06/22 12:39:38;;;;;;;7.90;1.25;;;27.70;61.40;;;;;;7351311;32;20103;-57
2022/06/22 12:43:59;;;;;;;3.70;0.90;;;27.80;61.50;;;;;;7348279;32;20585;-63
2022/06/22 12:48:22;;;;;;;4.15;1.50;;;28.20;62.90;;;;;;7346564;32;20177;-64
2022/06/22 12:52:34;;;;;;;7.28;1.20;;;28.20;63.90;;;;;;7346700;32;20591;-63
2022/06/22 12:56:58;;;;;;;1.85;0.90;;;27.90;59.70;;;;;;7342441;32;20182;-64
2022/06/22 13:01:00;;;;;;;4.80;1.27;;;27.90;65.80;;;;;;7343467;32;20119;-64
2022/06/22 13:05:17;;;;;;;6.65;3.58;;;28.10;63.80;;;;;;7347892;32;20133;-64
2022/06/22 13:09:21;;;;;;;5.62;1.20;;;28.10;62.10;;;;;;7341182;32;20103;-63
2022/06/22 13:13:32;;;;;;;5.47;1.42;;;28.00;62.70;;;;;;7343596;32;20111;-63
2022/06/22 13:17:54;;;;;;;6.82;1.60;;;28.00;61.90;;;;;;7347026;32;20142;-64
2022/06/22 13:22:09;;;;;;;3.65;1.00;;;28.00;63.00;;;;;;7349332;32;20291;-64
2022/06/22 13:26:35;;;;;;;7.93;4.68;;;28.10;63.50;;;;;;7348627;32;20202;-65
2022/06/22 13:30:58;;;;;;;5.70;1.45;;;28.50;62.20;;;;;;7341033;32;20447;-64
2022/06/22 13:35:25;;;;;;;3.33;1.08;;;28.50;60.50;;;;;;7347529;32;20738;-64
2022/06/22 13:40:02;;;;;;;5.35;1.25;;;28.30;58.80;;;;;;7343148;32;20164;-64
2022/06/22 13:44:03;;;;;;;3.50;1.30;;;28.20;57.70;;;;;;7337216;32;20112;-65
2022/06/22 13:48:18;;;;;;;6.60;1.10;;;28.00;62.30;;;;;;7344768;32;20190;-64
2022/06/22 13:52:38;;;;;;;7.97;1.27;;;28.10;58.30;;;;;;7344181;32;20143;-63
2022/06/22 13:56:49;;;;;;;4.65;1.08;;;27.70;61.20;;;;;;7334772;32;20202;-64
2022/06/22 14:01:19;;;;;;;3.85;1.10;;;27.90;61.30;;;;;;7341292;32;20229;-59
2022/06/22 14:05:44;;;;;;;4.40;1.08;;;27.90;61.60;;;;;;7338924;32;20182;-59
2022/06/22 14:09:53;;;;;;;6.57;1.23;;;28.10;59.70;;;;;;7342315;32;20153;-59
2022/06/22 14:14:01;;;;;;;4.72;1.50;;;28.30;59.50;;;;;;7346532;32;20237;-59
2022/06/22 14:18:26;;;;;;;4.00;1.20;;;28.00;58.10;;;;;;7346435;32;20685;-59
2022/06/22 14:22:41;;;;;;;3.65;1.17;;;27.90;59.70;;;;;;7339068;32;20107;-59
2022/06/22 14:26:48;;;;;;;4.30;1.27;;;28.20;59.30;;;;;;7343729;32;20134;-58
2022/06/22 14:31:12;;;;;;;3.75;1.00;;;28.10;58.60;;;;;;7343391;32;20125;-59
2022/06/22 14:35:25;;;;;;;4.47;1.10;;;28.10;58.10;;;;;;7342413;32;20807;-60
2022/06/22 14:39:37;;;;;;;4.93;1.30;;;27.90;59.10;;;;;;7343386;32;20134;-58
2022/06/22 14:43:58;;;;;;;2.67;1.00;;;27.80;57.40;;;;;;7341273;32;20133;-59
2022/06/22 14:48:08;;;;;;;5.65;1.30;;;27.70;59.20;;;;;;7343199;32;20134;-58
2022/06/22 14:52:39;;;;;;;6.32;1.12;;;27.80;58.90;;;;;;7341531;32;20104;-58
2022/06/22 14:56:59;;;;;;;5.53;0.98;;;28.00;59.40;;;;;;7345339;32;20176;-58
2022/06/22 15:01:05;;;;;;;3.87;1.33;;;28.20;59.40;;;;;;7338492;32;20139;-58
2022/06/22 15:05:17;;;;;;;3.03;1.20;;;28.20;58.70;;;;;;7346851;32;20133;-58
2022/06/22 15:09:29;;;;;;;6.30;3.30;;;28.00;57.70;;;;;;7342259;32;20375;-57
2022/06/22 15:13:46;;;;;;;4.10;0.90;;;28.10;58.30;;;;;;7339926;32;20621;-57
2022/06/22 15:17:56;;;;;;;2.73;0.90;;;27.90;56.70;;;;;;7339199;32;20119;-58
2022/06/22 15:22:12;;;;;;;5.40;1.30;;;28.10;58.10;;;;;;7339765;32;20134;-58
2022/06/22 15:26:50;;;;;;;4.85;1.20;;;28.20;58.10;;;;;;7342371;32;20198;-58
2022/06/22 15:31:00;;;;;;;3.40;1.45;;;27.70;56.80;;;;;;7343012;32;20134;-57
2022/06/22 15:35:24;;;;;;;3.28;0.88;;;27.40;58.80;;;;;;7341766;32;20130;-58
2022/06/22 15:39:33;;;;;;;2.72;1.27;;;27.40;59.50;;;;;;7336613;32;20130;-58
2022/06/22 15:44:06;;;;;;;3.25;0.90;;;27.30;58.50;;;;;;7345126;32;20719;-58
2022/06/22 15:48:23;;;;;;;1.75;1.10;;;27.10;58.40;;;;;;7338014;32;20206;-58
2022/06/22 15:52:31;;;;;;;6.70;1.10;;;27.00;59.30;;;;;;7341745;32;20276;-60
2022/06/22 15:57:08;;;;;;;2.37;1.35;;;27.10;59.40;;;;;;7328034;32;20217;-63
2022/06/22 16:01:13;;;;;;;5.90;1.10;;;27.00;57.90;;;;;;7310296;32;20609;-63
2022/06/22 16:05:30;;;;;;;4.43;1.45;;;26.90;58.90;;;;;;7340440;32;20300;-63
2022/06/22 16:10:01;;;;;;;6.97;1.15;;;26.70;59.10;;;;;;7340921;32;20150;-62
2022/06/22 16:14:09;;;;;;;4.87;1.00;;;26.60;59.40;;;;;;7344447;32;20129;-62
2022/06/22 16:18:30;;;;;;;3.58;0.88;;;26.70;59.30;;;;;;7339705;32;20242;-66
2022/06/22 16:22:47;;;;;;;4.85;1.08;;;26.70;60.10;;;;;;7340194;32;20138;-64
2022/06/22 16:27:15;;;;;;;5.30;1.10;;;26.70;60.10;;;;;;7339593;32;20119;-62
2022/06/22 16:31:39;;;;;;;2.97;0.95;;;26.50;59.20;;;;;;7336749;32;20205;-63
2022/06/22 16:35:50;;;;;;;4.00;1.00;;;26.40;60.00;;;;;;7335483;32;21049;-66
2022/06/22 16:40:13;;;;;;;3.05;1.85;;;26.40;60.90;;;;;;7332079;32;20222;-65
2022/06/22 16:44:24;;;;;;;2.67;1.17;;;26.40;61.70;;;;;;7335020;32;20827;-65
2022/06/22 16:48:48;;;;;;;2.80;1.25;;;26.30;62.30;;;;;;7340896;32;20291;-65
2022/06/22 16:52:50;;;;;;;2.28;1.23;;;26.40;63.00;;;;;;7340821;32;20739;-67
2022/06/22 16:57:04;;;;;;;2.22;1.40;;;26.30;62.80;;;;;;7336665;32;20139;-66
2022/06/22 17:01:29;;;;;;;3.12;1.42;;;26.40;63.40;;;;;;7337760;32;20257;-66
2022/06/22 17:05:37;;;;;;;3.53;1.48;;;26.30;63.60;;;;;;7337575;32;20123;-64
2022/06/22 17:09:56;;;;;;;4.28;1.40;;;26.20;62.00;;;;;;7336132;32;20203;-64
2022/06/22 17:13:58;;;;;;;5.82;1.80;;;26.10;64.10;;;;;;7335585;32;20112;-61
2022/06/22 17:18:23;;;;;;;4.03;1.42;;;26.10;64.30;;;;;;7344468;32;20116;-65
2022/06/22 17:22:35;;;;;;;5.00;2.58;;;26.30;63.90;;;;;;7339912;32;21114;-68
2022/06/22 17:27:08;;;;;;;2.95;1.50;;;26.30;64.00;;;;;;7347036;32;20115;-66
2022/06/22 17:31:22;;;;;;;2.90;1.20;;;26.20;64.90;;;;;;7343021;32;20107;-69
2022/06/22 17:35:38;;;;;;;6.37;2.92;;;26.00;64.20;;;;;;7344206;32;20112;-69
2022/06/22 17:40:06;;;;;;;4.95;1.50;;;26.10;64.90;;;;;;7348994;32;20141;-69
2022/06/22 17:44:31;;;;;;;4.62;1.25;;;25.90;65.40;;;;;;7345885;32;20154;-68
2022/06/22 17:48:38;;;;;;;6.25;1.20;;;25.70;64.60;;;;;;7345766;32;20345;-64
2022/06/22 17:52:39;;;;;;;4.60;1.37;;;25.60;65.70;;;;;;7344937;32;20238;-67
2022/06/22 17:56:46;;;;;;;3.87;1.35;;;25.70;65.00;;;;;;7344376;32;20143;-64
2022/06/22 18:00:51;;;;;;;3.95;1.50;;;25.60;66.80;;;;;;7343296;32;20134;-64
2022/06/22 18:05:29;;;;;;;2.70;1.17;;;25.50;65.60;;;;;;7343948;32;20462;-65
2022/06/22 18:09:57;;;;;;;3.55;1.10;;;25.40;66.40;;;;;;7342075;32;20723;-64
2022/06/22 18:14:13;;;;;;;5.85;1.40;;;25.30;66.00;;;;;;7343646;32;20137;-65
2022/06/22 18:18:18;;;;;;;7.25;2.60;;;25.20;66.30;;;;;;7342499;32;20386;-65
2022/06/22 18:22:23;;;;;;;4.37;1.20;;;25.10;67.30;;;;;;7339859;32;20111;-64
2022/06/22 18:26:29;;;;;;;5.15;1.23;;;25.00;67.20;;;;;;7339451;32;20132;-67
2022/06/22 18:30:48;;;;;;;6.00;1.00;;;24.90;68.20;;;;;;7342483;32;20130;-68
2022/06/22 18:35:13;;;;;;;4.55;1.17;;;24.80;70.00;;;;;;7346604;32;20119;-68
2022/06/22 18:43:47;;;;;;;2.80;1.12;;;24.60;67.70;;;;;;7338444;32;20133;-68
2022/06/22 18:48:02;;;;;;;3.78;1.20;;;24.60;65.70;;;;;;7338688;32;20211;-69
2022/06/22 18:52:10;;;;;;;4.05;1.45;;;24.50;68.00;;;;;;7337889;32;20137;-69
2022/06/22 18:56:19;;;;;;;5.82;1.58;;;24.40;68.40;;;;;;7341623;32;20970;-69
2022/06/22 19:00:28;;;;;;;3.92;1.10;;;24.20;67.90;;;;;;7344203;32;20566;-67
2022/06/22 19:04:31;;;;;;;2.35;0.88;;;24.10;68.70;;;;;;7345503;32;20189;-68
2022/06/22 19:08:47;;;;;;;2.08;1.00;;;24.00;68.00;;;;;;7342318;32;20217;-68
2022/06/22 19:12:52;;;;;;;3.15;1.20;;;23.80;70.10;;;;;;7339801;32;20138;-68
2022/06/22 19:17:22;;;;;;;2.97;1.10;;;23.70;69.50;;;;;;7340030;32;20518;-69
2022/06/22 19:21:40;;;;;;;3.67;1.17;;;23.50;70.40;;;;;;7338520;32;20183;-67
2022/06/22 19:26:23;;;;;;;6.12;1.33;;;23.30;71.80;;;;;;7335632;32;20122;-69
2022/06/22 19:30:33;;;;;;;2.97;1.17;;;23.10;72.40;;;;;;7287927;32;20245;-68
2022/06/22 19:34:58;;;;;;;3.65;1.10;;;22.90;73.60;;;;;;7306689;32;20179;-66
2022/06/22 19:39:30;;;;;;;5.77;1.40;;;22.80;75.00;;;;;;7339032;32;21369;-68
2022/06/22 19:44:03;;;;;;;3.08;1.37;;;22.40;78.40;;;;;;7338599;32;20218;-67
2022/06/22 19:48:33;;;;;;;2.53;1.30;;;22.10;81.60;;;;;;7340558;32;20116;-67
2022/06/22 19:52:58;;;;;;;4.97;2.28;;;21.90;84.90;;;;;;7339751;32;20246;-67
2022/06/22 19:57:01;;;;;;;4.45;1.20;;;21.70;85.60;;;;;;7343010;32;20150;-67
2022/06/22 20:01:08;;;;;;;4.78;1.48;;;21.50;86.10;;;;;;7341354;32;20265;-67
2022/06/22 20:05:24;;;;;;;6.00;2.37;;;21.30;90.50;;;;;;7335415;32;20340;-70
2022/06/22 20:09:35;;;;;;;2.90;1.33;;;21.00;90.30;;;;;;7341256;32;20209;-65
2022/06/22 20:13:51;;;;;;;7.75;1.40;;;20.80;91.50;;;;;;7342172;32;20137;-67
2022/06/22 20:17:57;;;;;;;4.50;1.50;;;20.50;92.90;;;;;;7337807;32;20134;-70
2022/06/22 20:22:09;;;;;;;4.47;1.20;;;20.40;93.20;;;;;;7335455;32;21636;-68
2022/06/22 20:26:33;;;;;;;2.35;1.50;;;20.30;92.90;;;;;;7339769;32;20111;-64
2022/06/22 20:30:55;;;;;;;4.70;1.30;;;20.30;92.70;;;;;;7341285;32;20571;-64
2022/06/22 20:35:23;;;;;;;6.87;1.30;;;20.20;94.80;;;;;;7341022;32;20119;-64
2022/06/22 20:39:25;;;;;;;8.38;5.22;;;20.00;98.10;;;;;;7337647;32;20436;-64
2022/06/22 20:43:54;;;;;;;4.35;1.60;;;20.00;95.40;;;;;;7342597;32;20359;-64
2022/06/22 20:48:27;;;;;;;4.30;1.40;;;19.80;99.90;;;;;;7345601;32;20218;-64
2022/06/22 20:52:33;;;;;;;4.80;1.48;;;19.70;99.90;;;;;;7351647;32;20153;-64
2022/06/22 20:56:44;;;;;;;4.47;1.52;;;19.50;99.90;;;;;;7341739;32;20130;-60
2022/06/22 21:00:48;;;;;;;3.78;1.30;;;19.40;99.90;;;;;;7342053;32;20209;-61
2022/06/22 21:04:50;;;;;;;4.55;2.03;;;19.30;99.90;;;;;;7347437;32;20349;-61
2022/06/22 21:08:55;;;;;;;5.47;1.87;;;19.20;99.90;;;;;;7340527;32;20151;-60
2022/06/22 21:13:00;;;;;;;3.17;1.15;;;19.10;99.90;;;;;;7341877;32;20134;-61
2022/06/22 21:17:22;;;;;;;7.60;1.20;;;19.20;99.90;;;;;;7345975;32;20134;-60
2022/06/22 21:21:24;;;;;;;3.35;1.00;;;19.20;99.90;;;;;;7342420;32;20809;-61
2022/06/22 21:25:29;;;;;;;4.12;1.60;;;19.20;98.30;;;;;;7339895;32;20258;-61
2022/06/22 21:29:37;;;;;;;3.42;1.50;;;19.30;96.70;;;;;;7343760;32;20195;-61
2022/06/22 21:34:18;;;;;;;2.83;1.08;;;19.40;96.30;;;;;;7341933;32;20126;-60
2022/06/22 21:38:42;;;;;;;2.85;1.08;;;19.50;94.30;;;;;;7336448;32;20111;-60
2022/06/22 21:43:08;;;;;;;1.25;0.90;;;19.50;96.60;;;;;;7338861;32;20407;-60
2022/06/22 21:47:25;;;;;;;4.97;1.20;;;19.40;95.40;;;;;;7342837;32;20158;-61
2022/06/22 21:51:42;;;;;;;2.33;1.00;;;19.50;95.30;;;;;;7344034;32;20605;-60
2022/06/22 21:56:01;;;;;;;2.72;1.05;;;19.40;95.60;;;;;;7340566;32;20236;-60
2022/06/22 22:00:08;;;;;;;4.03;1.15;;;19.30;96.80;;;;;;7340673;32;20103;-60
2022/06/22 22:04:20;;;;;;;2.90;1.10;;;19.30;94.00;;;;;;7339188;32;20163;-60
2022/06/22 22:08:24;;;;;;;5.12;1.30;;;19.30;96.30;;;;;;7344089;32;20188;-60
2022/06/22 22:12:28;;;;;;;2.15;1.00;;;19.40;94.40;;;;;;7342174;32;20180;-60
2022/06/22 22:17:01;;;;;;;4.05;1.10;;;19.50;93.50;;;;;;7340998;32;20137;-60
2022/06/22 22:21:12;;;;;;;3.50;1.08;;;19.40;93.50;;;;;;7336479;32;20142;-60
2022/06/22 22:25:24;;;;;;;2.62;1.10;;;19.50;93.00;;;;;;7332802;32;20506;-62
2022/06/22 22:29:40;;;;;;;3.53;1.10;;;19.50;92.90;;;;;;7339534;32;20199;-60
2022/06/22 22:33:43;;;;;;;2.70;1.02;;;19.50;92.90;;;;;;7338259;32;20126;-61
2022/06/22 22:37:46;;;;;;;2.90;1.15;;;19.60;92.10;;;;;;7340073;32;20138;-61
2022/06/22 22:41:51;;;;;;;2.15;1.27;;;19.60;92.30;;;;;;7343402;32;20566;-62
2022/06/22 22:45:53;;;;;;;3.35;1.30;;;19.50;93.50;;;;;;7339642;32;20178;-62
2022/06/22 22:49:58;;;;;;;2.97;1.20;;;19.60;91.80;;;;;;7338091;32;20166;-62